createdAt,value
2023-01-27T00:00:12.046Z,98418.19
2023-01-27T00:00:52.461Z,98420.75
2023-01-27T00:01:25.198Z,98412.94
2023-01-27T00:01:57.899Z,98416.44
2023-01-27T00:02:51.505Z,98414.75
2023-01-27T00:03:24.300Z,98416.44
2023-01-27T00:03:57.073Z,98415.56
2023-01-27T00:04:48.335Z,98416.41
2023-01-27T00:05:20.858Z,98407.69
2023-01-27T00:05:53.430Z,98405.91
2023-01-27T00:06:26.419Z,98408.56
2023-01-27T00:06:58.937Z,98411.22
2023-01-27T00:07:32.907Z,98408.59
2023-01-27T00:08:05.551Z,98409.47
2023-01-27T00:08:56.392Z,98408.59
2023-01-27T00:09:28.959Z,98409.50
2023-01-27T00:10:01.572Z,98403.38
2023-01-27T00:11:23.203Z,98395.56
2023-01-27T00:12:14.572Z,98406.91
2023-01-27T00:13:06.128Z,98408.59
2023-01-27T00:13:39.814Z,98410.31
2023-01-27T00:14:12.487Z,98408.69
2023-01-27T00:14:45.671Z,98408.66
2023-01-27T00:15:18.412Z,98409.47
2023-01-27T00:16:09.810Z,98399.00
2023-01-27T00:16:42.339Z,98410.34
2023-01-27T00:17:15.154Z,98404.28
2023-01-27T00:18:06.897Z,98406.03
2023-01-27T00:18:39.642Z,98406.03
2023-01-27T00:19:12.373Z,98406.06
2023-01-27T00:20:04.108Z,98406.88
2023-01-27T00:20:54.704Z,98399.97
2023-01-27T00:21:45.879Z,98406.00
2023-01-27T00:22:36.978Z,98404.31
2023-01-27T00:23:39.850Z,98398.16
2023-01-27T00:24:37.325Z,98398.22
2023-01-27T00:25:09.875Z,98399.13
2023-01-27T00:25:42.435Z,98401.72
2023-01-27T00:26:15.837Z,98399.13
2023-01-27T00:26:48.974Z,98398.25
2023-01-27T00:27:21.548Z,98400.84
2023-01-27T00:27:54.091Z,98389.47
2023-01-27T00:28:45.228Z,98390.34
2023-01-27T00:29:19.702Z,98400.78
2023-01-27T00:29:53.908Z,98394.66
2023-01-27T00:30:26.642Z,98392.06
2023-01-27T00:30:59.792Z,98389.44
2023-01-27T00:31:51.061Z,98388.59
2023-01-27T00:33:16.932Z,98387.66
2023-01-27T00:33:53.890Z,98394.75
2023-01-27T00:34:57.945Z,98392.13
2023-01-27T00:35:30.529Z,98396.44
2023-01-27T00:36:04.236Z,98391.22
2023-01-27T00:36:40.950Z,98391.22
2023-01-27T00:37:13.784Z,98393.84
2023-01-27T00:37:46.612Z,98391.25
2023-01-27T00:37:59.622Z,98395.56
2023-01-27T00:38:51.891Z,98389.50
2023-01-27T00:39:24.425Z,98391.22
2023-01-27T00:39:56.977Z,98395.53
2023-01-27T00:40:29.486Z,98395.53
2023-01-27T00:41:20.329Z,98398.13
2023-01-27T00:42:11.539Z,98398.16
2023-01-27T00:42:44.385Z,98400.75
2023-01-27T00:43:16.938Z,98406.88
2023-01-27T00:43:50.873Z,98399.97
2023-01-27T00:44:24.092Z,98403.50
2023-01-27T00:45:15.325Z,98400.06
2023-01-27T00:46:06.362Z,98403.47
2023-01-27T00:46:57.172Z,98394.66
2023-01-27T00:47:30.308Z,98402.50
2023-01-27T00:48:02.841Z,98403.38
2023-01-27T00:48:36.100Z,98398.16
2023-01-27T00:49:08.884Z,98394.66
2023-01-27T00:49:41.446Z,98392.06
2023-01-27T00:50:37.977Z,98396.41
2023-01-27T00:51:11.142Z,98393.84
2023-01-27T00:51:43.801Z,98397.34
2023-01-27T00:52:17.317Z,98396.44
2023-01-27T00:53:08.520Z,98394.69
2023-01-27T00:54:03.023Z,98400.75
2023-01-27T00:54:35.656Z,98397.38
2023-01-27T00:55:08.380Z,98395.59
2023-01-27T00:55:41.883Z,98392.16
2023-01-27T00:56:14.448Z,98401.72
2023-01-27T00:57:06.110Z,98398.22
2023-01-27T00:57:38.740Z,98393.03
2023-01-27T00:58:11.334Z,98397.38
2023-01-27T00:58:45.801Z,98400.81
2023-01-27T00:59:18.651Z,98398.19
2023-01-27T00:59:51.612Z,98386.88
2023-01-27T01:00:05.593Z,98392.97
2023-01-27T01:00:56.692Z,98396.47
2023-01-27T01:01:48.287Z,98400.75
2023-01-27T01:02:21.028Z,98385.09
2023-01-27T01:02:53.708Z,98389.47
2023-01-27T01:03:27.120Z,98390.34
2023-01-27T01:04:18.203Z,98392.06
2023-01-27T01:04:50.811Z,98393.00
2023-01-27T01:05:23.359Z,98394.75
2023-01-27T01:05:55.916Z,98397.38
2023-01-27T01:06:47.334Z,98399.06
2023-01-27T01:07:21.860Z,98388.66
2023-01-27T01:07:54.414Z,98395.59
2023-01-27T01:08:26.994Z,98393.87
2023-01-27T01:09:18.331Z,98393.00
2023-01-27T01:09:50.911Z,98393.87
2023-01-27T01:10:23.695Z,98394.75
2023-01-27T01:11:15.015Z,98393.00
2023-01-27T01:12:06.156Z,98387.72
2023-01-27T01:12:57.106Z,98388.56
2023-01-27T01:13:48.595Z,98392.94
2023-01-27T01:14:21.381Z,98396.47
2023-01-27T01:14:53.933Z,98394.75
2023-01-27T01:15:44.714Z,98397.41
2023-01-27T01:16:19.020Z,98392.16
2023-01-27T01:16:36.147Z,98389.53
2023-01-27T01:17:08.711Z,98393.87
2023-01-27T01:17:41.238Z,98399.06
2023-01-27T01:18:32.723Z,98395.53
2023-01-27T01:19:05.258Z,98391.19
2023-01-27T01:19:37.845Z,98395.59
2023-01-27T01:20:11.856Z,98388.62
2023-01-27T01:20:44.974Z,98390.34
2023-01-27T01:21:17.555Z,98391.19
2023-01-27T01:21:50.119Z,98392.91
2023-01-27T01:22:22.664Z,98394.69
2023-01-27T01:22:55.399Z,98391.22
2023-01-27T01:23:27.947Z,98394.69
2023-01-27T01:24:00.552Z,98391.22
2023-01-27T01:24:33.271Z,98395.59
2023-01-27T01:25:07.930Z,98391.28
2023-01-27T01:25:40.596Z,98387.75
2023-01-27T01:26:15.150Z,98392.13
2023-01-27T01:26:47.717Z,98386.94
2023-01-27T01:27:20.296Z,98393.91
2023-01-27T01:27:33.559Z,98390.41
2023-01-27T01:27:46.383Z,98389.50
2023-01-27T01:28:40.019Z,98387.78
2023-01-27T01:29:12.560Z,98391.28
2023-01-27T01:29:45.105Z,98393.03
2023-01-27T01:30:18.202Z,98396.56
2023-01-27T01:31:10.570Z,98396.56
2023-01-27T01:31:43.961Z,98392.19
2023-01-27T01:32:16.681Z,98389.53
2023-01-27T01:33:08.274Z,98389.53
2023-01-27T01:33:42.677Z,98394.78
2023-01-27T01:34:15.222Z,98394.78
2023-01-27T01:34:49.774Z,98393.91
2023-01-27T01:35:22.393Z,98389.47
2023-01-27T01:35:54.952Z,98398.25
2023-01-27T01:36:27.684Z,98391.34
2023-01-27T01:37:00.248Z,98391.38
2023-01-27T01:37:32.797Z,98392.25
2023-01-27T01:38:05.471Z,98393.09
2023-01-27T01:38:38.052Z,98400.03
2023-01-27T01:39:10.576Z,98398.25
2023-01-27T01:39:43.133Z,98389.53
2023-01-27T01:40:34.301Z,98390.41
2023-01-27T01:41:07.609Z,98393.91
2023-01-27T01:41:40.489Z,98389.53
2023-01-27T01:42:50.820Z,98385.19
2023-01-27T01:43:55.753Z,98380.84
2023-01-27T01:44:30.046Z,98382.59
2023-01-27T01:45:39.691Z,98370.41
2023-01-27T01:46:12.732Z,98383.50
2023-01-27T01:47:04.467Z,98380.91
2023-01-27T01:47:55.518Z,98382.66
2023-01-27T01:48:54.358Z,98391.41
2023-01-27T01:49:46.179Z,98383.53
2023-01-27T01:50:18.715Z,98387.84
2023-01-27T01:51:11.313Z,98380.91
2023-01-27T01:51:45.474Z,98387.91
2023-01-27T01:52:19.442Z,98392.28
2023-01-27T01:52:54.428Z,98384.44
2023-01-27T01:53:31.582Z,98386.22
2023-01-27T01:54:14.272Z,98381.88
2023-01-27T01:55:06.994Z,98385.37
2023-01-27T01:55:58.911Z,98383.56
2023-01-27T01:56:34.877Z,98380.94
2023-01-27T01:57:29.606Z,98380.03
2023-01-27T01:58:02.752Z,98382.63
2023-01-27T01:58:55.984Z,98381.81
2023-01-27T01:59:15.096Z,98383.53
2023-01-27T01:59:50.559Z,98385.25
2023-01-27T02:00:23.246Z,98386.97
2023-01-27T02:01:15.046Z,98385.25
2023-01-27T02:02:07.213Z,98390.47
2023-01-27T02:02:58.247Z,98386.97
2023-01-27T02:04:05.037Z,98383.53
2023-01-27T02:04:58.863Z,98387.00
2023-01-27T02:05:32.941Z,98393.09
2023-01-27T02:06:05.696Z,98384.31
2023-01-27T02:06:40.958Z,98387.84
2023-01-27T02:07:49.784Z,98388.72
2023-01-27T02:08:44.580Z,98387.91
2023-01-27T02:09:35.392Z,98382.66
2023-01-27T02:10:07.949Z,98382.66
2023-01-27T02:10:40.719Z,98376.56
2023-01-27T02:11:13.270Z,98377.47
2023-01-27T02:11:45.897Z,98374.03
2023-01-27T02:12:18.428Z,98375.78
2023-01-27T02:12:50.946Z,98380.09
2023-01-27T02:13:23.713Z,98373.94
2023-01-27T02:13:56.230Z,98367.88
2023-01-27T02:14:28.859Z,98367.03
2023-01-27T02:15:01.766Z,98378.31
2023-01-27T02:15:53.002Z,98370.50
2023-01-27T02:16:25.579Z,98371.41
2023-01-27T02:16:59.067Z,98373.09
2023-01-27T02:17:12.057Z,98361.81
2023-01-27T02:18:03.553Z,98369.69
2023-01-27T02:18:36.074Z,98370.53
2023-01-27T02:19:32.341Z,98360.13
2023-01-27T02:20:15.763Z,98353.13
2023-01-27T02:20:49.888Z,98361.81
2023-01-27T02:21:22.440Z,98360.09
2023-01-27T02:21:55.582Z,98354.84
2023-01-27T02:22:36.877Z,98352.22
2023-01-27T02:23:55.876Z,98357.47
2023-01-27T02:24:34.042Z,98356.47
2023-01-27T02:25:11.997Z,98349.59
2023-01-27T02:25:57.029Z,98346.16
2023-01-27T02:26:34.898Z,98341.84
2023-01-27T02:27:46.643Z,98346.13
2023-01-27T02:28:19.381Z,98347.91
2023-01-27T02:28:56.966Z,98342.72
2023-01-27T02:29:29.721Z,98342.72
2023-01-27T02:30:02.562Z,98346.19
2023-01-27T02:30:37.205Z,98337.47
2023-01-27T02:31:28.378Z,98349.63
2023-01-27T02:32:00.965Z,98350.47
2023-01-27T02:32:51.954Z,98354.78
2023-01-27T02:33:24.572Z,98353.19
2023-01-27T02:34:04.818Z,98358.34
2023-01-27T02:34:56.051Z,98349.63
2023-01-27T02:35:38.397Z,98354.84
2023-01-27T02:36:30.654Z,98351.41
2023-01-27T02:37:21.948Z,98347.91
2023-01-27T02:37:54.776Z,98347.03
2023-01-27T02:38:34.374Z,98352.22
2023-01-27T02:39:40.804Z,98349.69
2023-01-27T02:40:13.521Z,98355.75
2023-01-27T02:41:24.619Z,98354.81
2023-01-27T02:42:16.512Z,98356.63
2023-01-27T02:42:29.247Z,98348.81
2023-01-27T02:43:01.984Z,98347.94
2023-01-27T02:43:14.832Z,98343.59
2023-01-27T02:43:48.128Z,98340.13
2023-01-27T02:44:20.762Z,98333.16
2023-01-27T02:44:53.355Z,98330.56
2023-01-27T02:45:26.362Z,98330.56
2023-01-27T02:46:17.662Z,98325.34
2023-01-27T02:46:50.190Z,98327.13
2023-01-27T02:47:22.757Z,98330.59
2023-01-27T02:48:16.991Z,98328.88
2023-01-27T02:48:49.582Z,98334.06
2023-01-27T02:49:40.475Z,98324.50
2023-01-27T02:50:13.052Z,98321.91
2023-01-27T02:50:45.624Z,98321.06
2023-01-27T02:51:18.220Z,98314.97
2023-01-27T02:51:50.976Z,98315.81
2023-01-27T02:52:23.738Z,98321.09
2023-01-27T02:52:56.493Z,98316.72
2023-01-27T02:53:29.224Z,98316.72
2023-01-27T02:54:02.002Z,98319.31
2023-01-27T02:54:34.528Z,98316.72
2023-01-27T02:55:07.612Z,98321.97
2023-01-27T02:55:59.409Z,98322.81
2023-01-27T02:56:32.338Z,98321.97
2023-01-27T02:57:05.092Z,98315.94
2023-01-27T02:57:37.958Z,98322.88
2023-01-27T02:58:10.480Z,98328.06
2023-01-27T02:59:01.710Z,98324.56
2023-01-27T02:59:34.243Z,98322.81
2023-01-27T03:00:09.701Z,98323.69
2023-01-27T03:01:01.352Z,98328.03
2023-01-27T03:01:33.948Z,98320.22
2023-01-27T03:02:30.435Z,98320.22
2023-01-27T03:03:02.898Z,98318.50
2023-01-27T03:03:35.657Z,98319.34
2023-01-27T03:04:27.959Z,98320.22
2023-01-27T03:05:01.006Z,98325.47
2023-01-27T03:05:51.797Z,98322.78
2023-01-27T03:06:24.452Z,98317.59
2023-01-27T03:06:57.024Z,98314.94
2023-01-27T03:07:29.551Z,98319.28
2023-01-27T03:08:02.118Z,98312.31
2023-01-27T03:08:34.672Z,98315.78
2023-01-27T03:09:25.694Z,98312.28
2023-01-27T03:09:58.281Z,98307.97
2023-01-27T03:10:30.829Z,98308.03
2023-01-27T03:11:03.358Z,98306.25
2023-01-27T03:11:54.725Z,98312.31
2023-01-27T03:12:46.219Z,98311.44
2023-01-27T03:13:37.414Z,98313.19
2023-01-27T03:14:09.938Z,98307.09
2023-01-27T03:15:00.935Z,98307.13
2023-01-27T03:15:52.328Z,98301.94
2023-01-27T03:16:43.838Z,98306.34
2023-01-27T03:17:35.222Z,98308.09
2023-01-27T03:18:16.288Z,98301.13
2023-01-27T03:18:50.236Z,98304.66
2023-01-27T03:19:23.498Z,98309.84
2023-01-27T03:19:56.220Z,98303.69
2023-01-27T03:20:29.069Z,98305.44
2023-01-27T03:21:03.078Z,98301.09
2023-01-27T03:21:54.538Z,98304.62
2023-01-27T03:22:27.396Z,98310.69
2023-01-27T03:23:00.125Z,98310.72
2023-01-27T03:23:36.637Z,98301.13
2023-01-27T03:24:09.450Z,98310.69
2023-01-27T03:24:42.122Z,98302.03
2023-01-27T03:25:16.361Z,98300.28
2023-01-27T03:25:48.989Z,98306.38
2023-01-27T03:26:21.749Z,98304.59
2023-01-27T03:26:54.502Z,98295.91
2023-01-27T03:27:27.235Z,98295.91
2023-01-27T03:28:00.170Z,98293.28
2023-01-27T03:28:33.000Z,98294.16
2023-01-27T03:29:24.579Z,98295.88
2023-01-27T03:30:15.580Z,98297.56
2023-01-27T03:30:48.220Z,98289.81
2023-01-27T03:31:21.016Z,98296.78
2023-01-27T03:31:53.783Z,98291.59
2023-01-27T03:32:27.872Z,98290.72
2023-01-27T03:33:04.044Z,98290.72
2023-01-27T03:33:36.751Z,98285.53
2023-01-27T03:34:09.506Z,98294.19
2023-01-27T03:34:42.269Z,98289.00
2023-01-27T03:35:15.798Z,98295.09
2023-01-27T03:35:49.482Z,98295.09
2023-01-27T03:36:42.870Z,98288.13
2023-01-27T03:37:35.909Z,98290.72
2023-01-27T03:38:45.879Z,98292.38
2023-01-27T03:39:55.877Z,98285.44
2023-01-27T03:41:05.797Z,98287.25
2023-01-27T03:42:15.903Z,98287.22
2023-01-27T03:43:26.127Z,98291.59
2023-01-27T03:44:17.501Z,98290.72
2023-01-27T03:45:28.384Z,98284.56
2023-01-27T03:46:20.697Z,98282.84
2023-01-27T03:47:12.257Z,98283.75
2023-01-27T03:48:03.299Z,98279.41
2023-01-27T03:48:36.410Z,98287.22
2023-01-27T03:49:09.133Z,98280.31
2023-01-27T03:49:41.893Z,98285.53
2023-01-27T03:50:43.279Z,98286.41
2023-01-27T03:51:16.136Z,98288.97
2023-01-27T03:52:07.728Z,98282.09
2023-01-27T03:52:41.501Z,98279.44
2023-01-27T03:53:14.261Z,98282.06
2023-01-27T03:53:47.061Z,98279.41
2023-01-27T03:54:20.052Z,98282.03
2023-01-27T03:54:52.773Z,98281.13
2023-01-27T03:55:25.495Z,98281.09
2023-01-27T03:55:58.216Z,98281.97
2023-01-27T03:56:49.223Z,98285.44
2023-01-27T03:57:21.965Z,98277.63
2023-01-27T03:57:56.736Z,98276.84
2023-01-27T03:59:01.420Z,98280.28
2023-01-27T03:59:34.323Z,98271.59
2023-01-27T04:00:25.996Z,98275.06
2023-01-27T04:01:04.207Z,98277.69
2023-01-27T04:01:37.015Z,98275.91
2023-01-27T04:02:28.432Z,98275.03
2023-01-27T04:03:39.308Z,98277.63
2023-01-27T04:04:30.477Z,98273.28
2023-01-27T04:05:21.823Z,98271.59
2023-01-27T04:06:32.420Z,98269.81
2023-01-27T04:07:06.848Z,98268.09
2023-01-27T04:07:41.333Z,98267.28
2023-01-27T04:08:32.670Z,98263.81
2023-01-27T04:09:07.505Z,98268.16
2023-01-27T04:09:59.998Z,98261.16
2023-01-27T04:10:32.528Z,98268.13
2023-01-27T04:11:24.295Z,98266.38
2023-01-27T04:12:00.697Z,98267.25
2023-01-27T04:12:33.350Z,98268.97
2023-01-27T04:13:06.103Z,98269.00
2023-01-27T04:14:00.947Z,98267.28
2023-01-27T04:14:52.710Z,98275.09
2023-01-27T04:15:25.284Z,98271.63
2023-01-27T04:15:57.911Z,98274.16
2023-01-27T04:16:31.762Z,98267.28
2023-01-27T04:17:05.514Z,98274.22
2023-01-27T04:17:41.736Z,98275.97
2023-01-27T04:18:14.468Z,98270.75
2023-01-27T04:19:07.299Z,98280.28
2023-01-27T04:19:40.009Z,98273.28
2023-01-27T04:20:12.945Z,98275.06
2023-01-27T04:21:04.451Z,98272.41
2023-01-27T04:21:37.090Z,98268.03
2023-01-27T04:22:10.331Z,98265.47
2023-01-27T04:23:02.203Z,98274.16
2023-01-27T04:23:34.954Z,98271.53
2023-01-27T04:24:17.321Z,98275.03
2023-01-27T04:24:50.301Z,98268.94
2023-01-27T04:25:22.877Z,98271.59
2023-01-27T04:25:56.673Z,98269.00
2023-01-27T04:26:51.794Z,98266.41
2023-01-27T04:27:24.378Z,98270.81
2023-01-27T04:27:57.142Z,98267.31
2023-01-27T04:28:43.744Z,98257.75
2023-01-27T04:29:04.126Z,98262.94
2023-01-27T04:29:39.292Z,98266.34
2023-01-27T04:30:12.056Z,98262.03
2023-01-27T04:30:44.672Z,98267.25
2023-01-27T04:31:17.714Z,98271.59
2023-01-27T04:31:50.721Z,98266.38
2023-01-27T04:32:06.055Z,98266.44
2023-01-27T04:32:38.840Z,98262.97
2023-01-27T04:33:19.648Z,98266.38
2023-01-27T04:33:49.637Z,98268.06
2023-01-27T04:34:41.459Z,98269.00
2023-01-27T04:35:14.488Z,98261.19
2023-01-27T04:35:47.001Z,98262.91
2023-01-27T04:36:38.271Z,98267.25
2023-01-27T04:37:11.073Z,98269.88
2023-01-27T04:37:43.855Z,98272.47
2023-01-27T04:38:16.938Z,98264.69
2023-01-27T04:38:49.735Z,98262.94
2023-01-27T04:39:45.763Z,98268.16
2023-01-27T04:40:19.634Z,98268.13
2023-01-27T04:40:52.369Z,98266.44
2023-01-27T04:41:44.911Z,98269.00
2023-01-27T04:42:17.660Z,98266.47
2023-01-27T04:42:52.754Z,98260.38
2023-01-27T04:43:25.627Z,98271.63
2023-01-27T04:43:38.253Z,98269.03
2023-01-27T04:44:10.922Z,98263.81
2023-01-27T04:44:43.502Z,98270.72
2023-01-27T04:45:35.202Z,98274.16
2023-01-27T04:46:07.770Z,98268.09
2023-01-27T04:46:40.493Z,98264.63
2023-01-27T04:47:32.315Z,98264.66
2023-01-27T04:48:06.486Z,98269.88
2023-01-27T04:48:39.037Z,98267.22
2023-01-27T04:49:11.666Z,98265.50
2023-01-27T04:49:44.253Z,98269.00
2023-01-27T04:50:17.008Z,98265.50
2023-01-27T04:50:49.773Z,98268.94
2023-01-27T04:51:41.348Z,98270.72
2023-01-27T04:52:32.496Z,98265.53
2023-01-27T04:53:05.067Z,98266.38
2023-01-27T04:53:37.854Z,98276.78
2023-01-27T04:54:10.603Z,98272.47
2023-01-27T04:55:02.036Z,98265.53
2023-01-27T04:55:53.116Z,98269.91
2023-01-27T04:56:30.168Z,98269.03
2023-01-27T04:57:04.937Z,98275.16
2023-01-27T04:57:37.677Z,98271.59
2023-01-27T04:58:11.108Z,98273.41
2023-01-27T04:58:43.850Z,98273.34
2023-01-27T04:59:16.580Z,98272.44
2023-01-27T04:59:50.157Z,98277.69
2023-01-27T05:00:46.571Z,98271.59
2023-01-27T05:01:38.765Z,98278.56
2023-01-27T05:02:30.138Z,98276.88
2023-01-27T05:03:21.162Z,98278.63
2023-01-27T05:03:53.984Z,98275.16
2023-01-27T05:04:28.711Z,98283.84
2023-01-27T05:05:04.682Z,98280.38
2023-01-27T05:05:38.119Z,98278.63
2023-01-27T05:06:11.324Z,98282.09
2023-01-27T05:06:43.895Z,98285.59
2023-01-27T05:07:17.247Z,98284.66
2023-01-27T05:07:49.776Z,98279.47
2023-01-27T05:08:41.057Z,98290.78
2023-01-27T05:09:14.726Z,98283.84
2023-01-27T05:09:47.467Z,98284.66
2023-01-27T05:10:38.928Z,98283.78
2023-01-27T05:11:30.716Z,98280.34
2023-01-27T05:12:22.066Z,98285.53
2023-01-27T05:13:13.839Z,98287.25
2023-01-27T05:14:10.323Z,98292.53
2023-01-27T05:14:42.897Z,98297.75
2023-01-27T05:15:15.728Z,98288.19
2023-01-27T05:15:48.821Z,98292.50
2023-01-27T05:16:23.619Z,98290.75
2023-01-27T05:16:56.752Z,98289.84
2023-01-27T05:17:32.768Z,98294.22
2023-01-27T05:18:09.623Z,98285.53
2023-01-27T05:18:42.857Z,98288.06
2023-01-27T05:19:15.420Z,98284.63
2023-01-27T05:20:07.539Z,98287.22
2023-01-27T05:20:40.177Z,98289.88
2023-01-27T05:21:16.489Z,98287.25
2023-01-27T05:21:49.060Z,98288.16
2023-01-27T05:22:42.436Z,98288.16
2023-01-27T05:23:33.810Z,98283.78
2023-01-27T05:24:06.576Z,98282.03
2023-01-27T05:24:59.611Z,98283.78
2023-01-27T05:25:32.152Z,98288.13
2023-01-27T05:26:08.005Z,98280.28
2023-01-27T05:26:40.947Z,98288.09
2023-01-27T05:27:13.505Z,98282.91
2023-01-27T05:27:46.068Z,98284.66
2023-01-27T05:28:18.616Z,98280.34
2023-01-27T05:28:51.357Z,98282.06
2023-01-27T05:29:23.901Z,98279.44
2023-01-27T05:29:57.156Z,98280.34
2023-01-27T05:30:48.297Z,98275.12
2023-01-27T05:31:39.569Z,98277.75
2023-01-27T05:32:13.993Z,98278.63
2023-01-27T05:32:47.226Z,98274.31
2023-01-27T05:33:19.947Z,98265.59
2023-01-27T05:34:11.558Z,98274.22
2023-01-27T05:34:44.257Z,98274.28
2023-01-27T05:34:57.333Z,98269.94
2023-01-27T05:35:32.522Z,98280.34
2023-01-27T05:36:05.980Z,98282.94
2023-01-27T05:36:57.181Z,98282.94
2023-01-27T05:37:29.912Z,98280.31
2023-01-27T05:38:02.468Z,98276.88
2023-01-27T05:38:35.105Z,98277.78
2023-01-27T05:39:10.483Z,98283.88
2023-01-27T05:40:01.882Z,98276.91
2023-01-27T05:41:03.824Z,98285.63
2023-01-27T05:41:36.595Z,98283.81
2023-01-27T05:42:09.467Z,98278.56
2023-01-27T05:43:00.466Z,98278.66
2023-01-27T05:43:34.538Z,98280.34
2023-01-27T05:44:25.462Z,98281.22
2023-01-27T05:45:17.077Z,98283.84
2023-01-27T05:45:51.587Z,98281.25
2023-01-27T05:46:25.715Z,98279.56
2023-01-27T05:47:00.237Z,98289.97
2023-01-27T05:47:32.786Z,98283.84
2023-01-27T05:48:05.742Z,98282.09
2023-01-27T05:48:39.399Z,98291.66
2023-01-27T05:49:30.109Z,98287.28
2023-01-27T05:50:21.376Z,98282.03
2023-01-27T05:50:55.656Z,98289.94
2023-01-27T05:51:35.531Z,98277.78
2023-01-27T05:52:08.270Z,98285.56
2023-01-27T05:52:40.940Z,98287.31
2023-01-27T05:52:53.756Z,98284.72
2023-01-27T05:53:26.435Z,98281.25
2023-01-27T05:53:58.985Z,98284.78
2023-01-27T05:54:31.727Z,98293.47
2023-01-27T05:55:04.908Z,98293.44
2023-01-27T05:55:37.737Z,98283.91
2023-01-27T05:56:11.487Z,98291.69
2023-01-27T05:56:44.154Z,98293.41
2023-01-27T05:57:16.935Z,98295.16
2023-01-27T05:57:49.786Z,98293.41
2023-01-27T05:58:22.784Z,98293.41
2023-01-27T05:58:56.083Z,98282.94
2023-01-27T05:59:28.808Z,98289.94
2023-01-27T06:00:01.581Z,98285.56
2023-01-27T06:00:53.040Z,98291.66
2023-01-27T06:01:50.022Z,98289.06
2023-01-27T06:02:23.576Z,98290.78
2023-01-27T06:03:14.984Z,98287.31
2023-01-27T06:03:48.002Z,98285.63
2023-01-27T06:04:20.716Z,98292.53
2023-01-27T06:04:53.566Z,98290.81
2023-01-27T06:05:26.386Z,98290.81
2023-01-27T06:05:59.273Z,98289.09
2023-01-27T06:06:33.062Z,98292.59
2023-01-27T06:07:23.905Z,98290.81
2023-01-27T06:08:15.405Z,98285.56
2023-01-27T06:08:48.370Z,98287.31
2023-01-27T06:09:40.036Z,98289.06
2023-01-27T06:10:32.059Z,98285.56
2023-01-27T06:11:06.042Z,98283.84
2023-01-27T06:11:38.583Z,98276.88
2023-01-27T06:12:11.359Z,98284.72
2023-01-27T06:12:44.100Z,98287.34
2023-01-27T06:13:16.903Z,98282.12
2023-01-27T06:14:08.122Z,98284.72
2023-01-27T06:14:42.822Z,98284.72
2023-01-27T06:15:15.778Z,98287.31
2023-01-27T06:15:48.567Z,98283.00
2023-01-27T06:16:21.751Z,98286.47
2023-01-27T06:16:54.906Z,98281.31
2023-01-27T06:17:27.703Z,98289.09
2023-01-27T06:18:19.405Z,98285.63
2023-01-27T06:18:52.201Z,98286.47
2023-01-27T06:19:24.948Z,98288.19
2023-01-27T06:19:57.712Z,98287.34
2023-01-27T06:20:33.099Z,98288.22
2023-01-27T06:21:07.012Z,98287.31
2023-01-27T06:21:39.630Z,98285.59
2023-01-27T06:22:33.864Z,98289.06
2023-01-27T06:23:07.819Z,98291.69
2023-01-27T06:23:58.801Z,98282.09
2023-01-27T06:24:31.446Z,98293.41
2023-01-27T06:25:03.797Z,98285.66
2023-01-27T06:25:47.836Z,98277.72
2023-01-27T06:26:20.435Z,98281.25
2023-01-27T06:27:11.757Z,98283.88
2023-01-27T06:27:44.344Z,98289.09
2023-01-27T06:28:28.563Z,98288.25
2023-01-27T06:28:50.848Z,98287.38
2023-01-27T06:29:23.411Z,98283.88
2023-01-27T06:29:55.953Z,98287.38
2023-01-27T06:30:28.608Z,98283.03
2023-01-27T06:31:08.554Z,98285.59
2023-01-27T06:31:41.093Z,98280.41
2023-01-27T06:32:13.888Z,98278.66
2023-01-27T06:32:27.697Z,98271.66
2023-01-27T06:33:00.242Z,98283.84
2023-01-27T06:33:52.319Z,98282.16
2023-01-27T06:34:43.328Z,98281.28
2023-01-27T06:35:15.951Z,98274.28
2023-01-27T06:35:48.462Z,98284.75
2023-01-27T06:36:21.777Z,98283.91
2023-01-27T06:36:34.685Z,98279.53
2023-01-27T06:37:07.485Z,98277.78
2023-01-27T06:37:59.009Z,98281.31
2023-01-27T06:38:31.830Z,98289.09
2023-01-27T06:39:04.525Z,98286.50
2023-01-27T06:39:37.265Z,98289.09
2023-01-27T06:40:11.594Z,98286.50
2023-01-27T06:41:02.480Z,98286.50
2023-01-27T06:41:59.299Z,98288.22
2023-01-27T06:42:52.378Z,98283.00
2023-01-27T06:43:26.873Z,98291.72
2023-01-27T06:44:00.302Z,98287.38
2023-01-27T06:44:32.924Z,98283.06
2023-01-27T06:45:05.761Z,98290.88
2023-01-27T06:46:00.088Z,98292.63
2023-01-27T06:46:32.645Z,98298.63
2023-01-27T06:47:05.183Z,98302.13
2023-01-27T06:47:40.163Z,98291.69
2023-01-27T06:48:12.906Z,98288.25
2023-01-27T06:49:03.776Z,98290.84
2023-01-27T06:49:36.493Z,98290.00
2023-01-27T06:50:10.353Z,98290.81
2023-01-27T06:50:42.903Z,98289.13
2023-01-27T06:51:15.515Z,98288.25
2023-01-27T06:51:48.239Z,98290.88
2023-01-27T06:52:21.010Z,98288.31
2023-01-27T06:52:53.942Z,98293.47
2023-01-27T06:53:26.311Z,98294.31
2023-01-27T06:53:58.866Z,98290.84
2023-01-27T06:54:31.402Z,98287.38
2023-01-27T06:55:04.486Z,98289.09
2023-01-27T06:55:59.344Z,98282.16
2023-01-27T06:56:51.191Z,98280.44
2023-01-27T06:57:42.656Z,98285.66
2023-01-27T06:58:15.375Z,98280.47
2023-01-27T06:58:47.910Z,98292.59
2023-01-27T06:59:20.793Z,98289.13
2023-01-27T06:59:53.592Z,98285.63
2023-01-27T07:00:27.431Z,98288.25
2023-01-27T07:01:00.153Z,98283.91
2023-01-27T07:01:53.754Z,98294.37
2023-01-27T07:02:28.389Z,98287.44
2023-01-27T07:03:25.065Z,98283.09
2023-01-27T07:03:57.785Z,98289.06
2023-01-27T07:04:30.515Z,98287.38
2023-01-27T07:05:24.102Z,98289.13
2023-01-27T07:06:16.228Z,98295.16
2023-01-27T07:07:07.356Z,98297.81
2023-01-27T07:07:40.299Z,98295.16
2023-01-27T07:08:13.989Z,98292.59
2023-01-27T07:09:05.493Z,98284.78
2023-01-27T07:09:56.800Z,98291.69
2023-01-27T07:10:29.473Z,98294.31
2023-01-27T07:10:42.300Z,98288.22
2023-01-27T07:11:14.909Z,98290.84
2023-01-27T07:11:47.561Z,98287.38
2023-01-27T07:12:20.085Z,98288.19
2023-01-27T07:12:52.666Z,98282.12
2023-01-27T07:13:25.701Z,98283.88
2023-01-27T07:13:58.284Z,98281.25
2023-01-27T07:14:49.030Z,98278.59
2023-01-27T07:15:21.570Z,98280.38
2023-01-27T07:16:12.445Z,98287.34
2023-01-27T07:16:45.372Z,98285.59
2023-01-27T07:17:17.889Z,98287.31
2023-01-27T07:18:10.165Z,98290.81
2023-01-27T07:18:42.689Z,98292.56
2023-01-27T07:19:16.619Z,98295.19
2023-01-27T07:20:09.861Z,98289.09
2023-01-27T07:20:42.632Z,98290.78
2023-01-27T07:21:15.449Z,98286.44
2023-01-27T07:21:48.285Z,98289.94
2023-01-27T07:22:21.359Z,98293.41
2023-01-27T07:22:56.406Z,98293.47
2023-01-27T07:23:29.152Z,98293.47
2023-01-27T07:24:05.427Z,98291.72
2023-01-27T07:24:38.141Z,98293.44
2023-01-27T07:25:10.881Z,98302.94
2023-01-27T07:26:05.727Z,98302.09
2023-01-27T07:26:54.203Z,98298.66
2023-01-27T07:27:26.939Z,98299.47
2023-01-27T07:28:18.611Z,98296.88
2023-01-27T07:28:51.356Z,98302.13
2023-01-27T07:29:24.105Z,98304.72
2023-01-27T07:29:58.428Z,98304.75
2023-01-27T07:30:31.654Z,98303.00
2023-01-27T07:31:04.490Z,98305.56
2023-01-27T07:31:37.201Z,98304.69
2023-01-27T07:32:29.416Z,98297.66
2023-01-27T07:32:42.433Z,98303.81
2023-01-27T07:33:15.747Z,98305.56
2023-01-27T07:33:48.535Z,98305.56
2023-01-27T07:34:21.269Z,98301.22
2023-01-27T07:34:54.603Z,98302.94
2023-01-27T07:35:27.385Z,98302.94
2023-01-27T07:36:02.276Z,98305.50